createdAt,value
2023-04-16T00:01:33.178Z,98495.40
2023-04-16T00:04:30.997Z,98500.00
2023-04-16T00:07:29.123Z,98495.40
2023-04-16T00:10:26.590Z,98492.60
2023-04-16T00:13:24.267Z,98493.20
2023-04-16T00:16:21.783Z,98488.80
2023-04-16T00:19:19.465Z,98488.40
2023-04-16T00:22:16.933Z,98486.80
2023-04-16T00:25:14.551Z,98489.80
2023-04-16T00:28:12.123Z,98493.20
2023-04-16T00:31:09.647Z,98493.60
2023-04-16T00:34:07.346Z,98498.40
2023-04-16T00:37:04.729Z,98495.40
2023-04-16T00:40:02.277Z,98493.80
2023-04-16T00:42:59.712Z,98495.80
2023-04-16T00:45:57.437Z,98493.00
2023-04-16T00:48:55.133Z,98491.20
2023-04-16T00:51:52.592Z,98495.40
2023-04-16T00:54:50.332Z,98504.80
2023-04-16T00:57:47.779Z,98497.80
2023-04-16T01:00:45.661Z,98496.00
2023-04-16T01:03:43.329Z,98497.20
2023-04-16T01:06:41.304Z,98500.80
2023-04-16T01:09:39.049Z,98506.40
2023-04-16T01:12:36.546Z,98501.60
2023-04-16T01:15:34.359Z,98500.20
2023-04-16T01:18:31.802Z,98498.20
2023-04-16T01:21:29.365Z,98501.00
2023-04-16T01:24:26.797Z,98505.80
2023-04-16T01:27:24.424Z,98506.60
2023-04-16T01:30:21.807Z,98505.00
2023-04-16T01:33:19.601Z,98502.20
2023-04-16T01:36:17.185Z,98505.40
2023-04-16T01:39:16.535Z,98511.20
2023-04-16T01:42:14.390Z,98513.00
2023-04-16T01:45:11.794Z,98511.80
2023-04-16T01:48:09.510Z,98521.40
2023-04-16T01:51:06.965Z,98521.00
2023-04-16T01:54:04.604Z,98530.80
2023-04-16T01:57:03.462Z,98527.80
2023-04-16T02:00:00.894Z,98527.00
2023-04-16T02:02:58.723Z,98524.00
2023-04-16T02:05:56.383Z,98520.20
2023-04-16T02:08:54.294Z,98522.80
2023-04-16T02:11:52.059Z,98524.00
2023-04-16T02:14:49.584Z,98529.80
2023-04-16T02:17:49.044Z,98525.60
2023-04-16T02:20:46.524Z,98526.80
2023-04-16T02:23:47.841Z,98527.20
2023-04-16T02:26:45.542Z,98525.60
2023-04-16T02:29:43.382Z,98533.60
2023-04-16T02:32:41.098Z,98544.40
2023-04-16T02:35:38.561Z,98541.00
2023-04-16T02:38:38.416Z,98538.20
2023-04-16T02:41:36.232Z,98537.00
2023-04-16T02:44:33.847Z,98542.80
2023-04-16T02:47:31.288Z,98536.80
2023-04-16T02:50:28.946Z,98542.80
2023-04-16T02:53:26.393Z,98545.20
2023-04-16T02:56:24.109Z,98542.60
2023-04-16T02:59:21.745Z,98545.20
2023-04-16T03:02:19.204Z,98548.20
2023-04-16T03:05:17.008Z,98553.20
2023-04-16T03:08:14.416Z,98552.40
2023-04-16T03:11:12.038Z,98553.80
2023-04-16T03:14:09.466Z,98561.20
2023-04-16T03:17:07.554Z,98557.60
2023-04-16T03:20:05.740Z,98556.00
2023-04-16T03:23:03.166Z,98558.40
2023-04-16T03:26:00.880Z,98565.80
2023-04-16T03:28:58.314Z,98567.20
2023-04-16T03:31:55.927Z,98571.00
2023-04-16T03:34:53.311Z,98570.20
2023-04-16T03:37:52.130Z,98576.60
2023-04-16T03:40:49.505Z,98576.60
2023-04-16T03:43:47.136Z,98576.80
2023-04-16T03:46:45.752Z,98578.60
2023-04-16T03:49:43.330Z,98579.80
2023-04-16T03:52:41.293Z,98583.20
2023-04-16T03:55:38.705Z,98582.40
2023-04-16T03:58:36.409Z,98587.40
2023-04-16T04:01:33.814Z,98590.40
2023-04-16T04:04:31.613Z,98598.80
2023-04-16T04:07:29.080Z,98600.40
2023-04-16T04:10:26.747Z,98604.20
2023-04-16T04:13:24.430Z,98610.80
2023-04-16T04:16:21.882Z,98622.00
2023-04-16T04:19:19.526Z,98629.80
2023-04-16T04:22:16.959Z,98630.20
2023-04-16T04:25:14.590Z,98629.40
2023-04-16T04:28:11.992Z,98634.00
2023-04-16T04:31:09.694Z,98630.80
2023-04-16T04:34:07.155Z,98638.40
2023-04-16T04:37:04.863Z,98632.60
2023-04-16T04:40:02.291Z,98636.20
2023-04-16T04:42:59.821Z,98645.00
2023-04-16T04:45:57.469Z,98650.60
2023-04-16T04:48:54.969Z,98652.80
2023-04-16T04:51:52.701Z,98656.00
2023-04-16T04:54:50.131Z,98660.00
2023-04-16T04:57:47.738Z,98668.60
2023-04-16T05:00:45.125Z,98677.20
2023-04-16T05:03:42.969Z,98683.60
2023-04-16T05:06:40.410Z,98684.20
2023-04-16T05:09:38.134Z,98691.80
2023-04-16T05:12:36.027Z,98694.40
2023-04-16T05:15:33.468Z,98698.60
2023-04-16T05:18:31.507Z,98704.40
2023-04-16T05:21:28.942Z,98707.60
2023-04-16T05:24:26.790Z,98704.80
2023-04-16T05:27:24.305Z,98705.20
2023-04-16T05:30:22.056Z,98714.00
2023-04-16T05:33:19.492Z,98713.80
2023-04-16T05:36:17.302Z,98715.20
2023-04-16T05:39:15.165Z,98714.60
2023-04-16T05:42:12.607Z,98712.00
2023-04-16T05:45:10.708Z,98713.40
2023-04-16T05:48:08.129Z,98710.00
2023-04-16T05:51:05.809Z,98714.60
2023-04-16T05:54:03.237Z,98713.00
2023-04-16T05:57:01.469Z,98719.20
2023-04-16T05:59:58.919Z,98713.20
2023-04-16T06:02:56.722Z,98710.60
2023-04-16T06:05:54.871Z,98712.40
2023-04-16T06:08:52.562Z,98715.60
2023-04-16T06:11:50.899Z,98721.40
2023-04-16T06:14:48.283Z,98719.40
2023-04-16T06:17:46.117Z,98719.40
2023-04-16T06:20:43.894Z,98719.60
2023-04-16T06:23:41.318Z,98723.60
2023-04-16T06:26:39.012Z,98730.20
2023-04-16T06:29:41.139Z,98732.20
2023-04-16T06:32:39.443Z,98729.20
2023-04-16T06:35:37.010Z,98732.00
2023-04-16T06:38:34.986Z,98730.00
2023-04-16T06:41:32.445Z,98737.00
2023-04-16T06:44:30.134Z,98732.00
2023-04-16T06:47:28.537Z,98732.60
2023-04-16T06:50:26.856Z,98734.60
2023-04-16T06:53:24.541Z,98736.40
2023-04-16T06:56:21.948Z,98743.60
2023-04-16T06:59:19.685Z,98748.60
2023-04-16T07:02:17.251Z,98746.20
2023-04-16T07:05:15.107Z,98752.40
2023-04-16T07:08:12.882Z,98756.20
2023-04-16T07:11:10.471Z,98757.00
2023-04-16T07:14:08.599Z,98760.80
2023-04-16T07:17:06.034Z,98767.00
2023-04-16T07:20:03.696Z,98768.00
2023-04-16T07:23:01.157Z,98770.80
2023-04-16T07:25:58.880Z,98776.60
2023-04-16T07:28:56.319Z,98787.60
2023-04-16T07:31:54.071Z,98795.20
2023-04-16T07:34:51.980Z,98795.40
2023-04-16T07:37:49.365Z,98804.60
2023-04-16T07:40:47.028Z,98803.60
2023-04-16T07:43:44.406Z,98805.60
2023-04-16T07:46:46.982Z,98805.60
2023-04-16T07:49:45.258Z,98806.00
2023-04-16T07:52:44.128Z,98805.00
2023-04-16T07:55:41.549Z,98810.60
2023-04-16T07:58:39.210Z,98804.60
2023-04-16T08:01:37.012Z,98819.80
2023-04-16T08:04:34.564Z,98817.60
2023-04-16T08:07:34.492Z,98813.60
2023-04-16T08:10:32.390Z,98815.00
2023-04-16T08:13:31.751Z,98812.40
2023-04-16T08:16:30.538Z,98814.20
2023-04-16T08:19:28.286Z,98819.60
2023-04-16T08:22:26.802Z,98817.80
2023-04-16T08:25:24.884Z,98824.20
2023-04-16T08:28:22.535Z,98817.20
2023-04-16T08:31:20.012Z,98824.00
2023-04-16T08:34:17.687Z,98824.00
2023-04-16T08:37:15.376Z,98822.20
2023-04-16T08:40:12.812Z,98823.40
2023-04-16T08:43:10.425Z,98824.00
2023-04-16T08:46:07.911Z,98824.20
2023-04-16T08:49:05.510Z,98829.40
2023-04-16T08:52:02.953Z,98831.80
2023-04-16T08:55:00.730Z,98830.20
2023-04-16T08:57:58.385Z,98837.20
2023-04-16T09:00:55.794Z,98841.40
2023-04-16T09:03:53.819Z,98842.20
2023-04-16T09:06:51.473Z,98846.40
2023-04-16T09:09:49.139Z,98848.40
2023-04-16T09:12:46.574Z,98852.40
2023-04-16T09:15:45.323Z,98849.20
2023-04-16T09:18:42.786Z,98851.00
2023-04-16T09:21:40.470Z,98848.00
2023-04-16T09:24:38.986Z,98846.60
2023-04-16T09:27:36.397Z,98852.20
2023-04-16T09:30:35.058Z,98863.80
2023-04-16T09:33:34.474Z,98865.60
2023-04-16T09:36:35.212Z,98868.80
2023-04-16T09:39:33.068Z,98865.60
2023-04-16T09:42:32.139Z,98869.80
2023-04-16T09:45:29.830Z,98874.80
2023-04-16T09:48:27.707Z,98878.80
2023-04-16T09:51:27.156Z,98875.80
2023-04-16T09:54:24.606Z,98881.00
2023-04-16T09:57:22.514Z,98876.60
2023-04-16T10:00:19.972Z,98885.40
2023-04-16T10:03:18.243Z,98887.40
2023-04-16T10:06:16.023Z,98891.80
2023-04-16T10:09:13.475Z,98893.60
2023-04-16T10:12:12.963Z,98889.40
2023-04-16T10:15:11.115Z,98886.60
2023-04-16T10:18:08.922Z,98894.00
2023-04-16T10:21:06.384Z,98892.00
2023-04-16T10:24:04.749Z,98888.60
2023-04-16T10:27:02.349Z,98882.60
2023-04-16T10:30:00.090Z,98882.40
2023-04-16T10:33:00.631Z,98885.80
2023-04-16T10:36:07.049Z,98883.40
2023-04-16T10:39:05.522Z,98885.40
2023-04-16T10:42:03.147Z,98889.40
2023-04-16T10:45:01.035Z,98889.60
2023-04-16T10:47:59.388Z,98884.00
2023-04-16T10:51:00.219Z,98889.60
2023-04-16T10:53:58.055Z,98889.60
2023-04-16T10:56:55.514Z,98886.00
2023-04-16T10:59:53.230Z,98889.80
2023-04-16T11:02:50.847Z,98883.60
2023-04-16T11:05:48.426Z,98890.80
2023-04-16T11:08:54.063Z,98889.60
2023-04-16T11:11:52.686Z,98883.40
2023-04-16T11:14:51.780Z,98888.80
2023-04-16T11:17:50.658Z,98888.40
2023-04-16T11:20:48.181Z,98884.00
2023-04-16T11:23:45.937Z,98881.80
2023-04-16T11:26:43.385Z,98884.60
2023-04-16T11:29:41.059Z,98886.40
2023-04-16T11:32:39.763Z,98895.40
2023-04-16T11:35:37.588Z,98901.00
2023-04-16T11:38:36.622Z,98902.40
2023-04-16T11:41:34.097Z,98903.60
2023-04-16T11:44:31.939Z,98906.40
2023-04-16T11:47:29.445Z,98912.00
2023-04-16T11:50:27.742Z,98912.60
2023-04-16T11:53:25.211Z,98915.60
2023-04-16T11:56:22.878Z,98917.40
2023-04-16T11:59:20.492Z,98918.60
2023-04-16T12:02:17.970Z,98919.20
2023-04-16T12:05:16.171Z,98925.60
2023-04-16T12:08:13.667Z,98930.20
2023-04-16T12:11:11.437Z,98927.20
2023-04-16T12:14:09.430Z,98931.60
2023-04-16T12:17:07.199Z,98932.20
2023-04-16T12:20:06.265Z,98930.40
2023-04-16T12:23:04.072Z,98929.00
2023-04-16T12:26:03.002Z,98922.60
2023-04-16T12:29:00.671Z,98923.60
2023-04-16T12:31:58.243Z,98927.80
2023-04-16T12:34:55.706Z,98922.00
2023-04-16T12:37:53.414Z,98916.60
2023-04-16T12:40:51.189Z,98920.40
2023-04-16T12:43:48.780Z,98915.40
2023-04-16T12:46:46.615Z,98913.20
2023-04-16T12:49:44.684Z,98914.80
2023-04-16T12:52:42.277Z,98914.20
2023-04-16T12:55:39.707Z,98914.00
2023-04-16T12:58:37.731Z,98910.20
2023-04-16T13:01:39.405Z,98907.20
2023-04-16T13:04:37.080Z,98905.80
2023-04-16T13:07:34.918Z,98903.00
2023-04-16T13:10:32.532Z,98901.60
2023-04-16T13:13:30.388Z,98905.00
2023-04-16T13:16:28.162Z,98903.60
2023-04-16T13:19:26.231Z,98895.20
2023-04-16T13:22:23.635Z,98895.40
2023-04-16T13:25:21.354Z,98899.60
2023-04-16T13:28:19.514Z,98891.80
2023-04-16T13:31:20.263Z,98885.80
2023-04-16T13:34:18.125Z,98891.80
2023-04-16T13:37:16.039Z,98893.40
2023-04-16T13:40:13.803Z,98897.20
2023-04-16T13:43:13.783Z,98899.40
2023-04-16T13:46:11.592Z,98900.00
2023-04-16T13:49:09.525Z,98902.80
2023-04-16T13:52:07.931Z,98903.60
2023-04-16T13:55:06.209Z,98901.40
2023-04-16T13:58:03.697Z,98900.40
2023-04-16T14:01:01.855Z,98909.40
2023-04-16T14:04:02.070Z,98908.80
2023-04-16T14:06:59.888Z,98910.00
2023-04-16T14:09:57.456Z,98905.60
2023-04-16T14:12:55.089Z,98908.80
2023-04-16T14:15:52.756Z,98901.00
2023-04-16T14:18:52.150Z,98904.40
2023-04-16T14:21:49.942Z,98908.00
2023-04-16T14:24:47.456Z,98907.60
2023-04-16T14:27:46.040Z,98908.00
2023-04-16T14:30:43.746Z,98902.80
2023-04-16T14:33:42.125Z,98905.20
2023-04-16T14:36:40.155Z,98903.00
2023-04-16T14:39:39.727Z,98903.80
2023-04-16T14:42:38.050Z,98903.80
2023-04-16T14:45:38.282Z,98911.60
2023-04-16T14:48:36.274Z,98910.40
2023-04-16T14:51:34.122Z,98904.20
2023-04-16T14:54:31.911Z,98909.60
2023-04-16T14:57:29.496Z,98909.60
2023-04-16T15:00:28.241Z,98911.80
2023-04-16T15:03:26.644Z,98913.60
2023-04-16T15:06:24.367Z,98921.40
2023-04-16T15:12:41.015Z,98918.40
2023-04-16T15:15:38.874Z,98921.20
2023-04-16T15:18:36.753Z,98922.60
2023-04-16T15:21:34.651Z,98923.80
2023-04-16T15:24:32.523Z,98926.20
2023-04-16T15:27:30.863Z,98924.00
2023-04-16T15:30:28.677Z,98925.60
2023-04-16T15:33:26.482Z,98925.60
2023-04-16T15:36:26.322Z,98929.80
2023-04-16T15:39:24.499Z,98929.20
2023-04-16T15:42:23.086Z,98932.00
2023-04-16T15:45:22.226Z,98940.40
2023-04-16T15:48:20.796Z,98936.40
2023-04-16T15:51:19.168Z,98941.00
2023-04-16T15:54:18.563Z,98938.20
2023-04-16T15:57:16.854Z,98942.40
2023-04-16T16:00:17.357Z,98940.00
2023-04-16T16:03:16.751Z,98938.80
2023-04-16T16:06:18.083Z,98944.40
2023-04-16T16:09:16.400Z,98947.20
2023-04-16T16:12:14.681Z,98949.40
2023-04-16T16:15:12.415Z,98950.40
2023-04-16T16:18:11.056Z,98952.80
2023-04-16T16:21:09.475Z,98953.80
2023-04-16T16:24:08.618Z,98953.40
2023-04-16T16:27:06.798Z,98948.40
2023-04-16T16:30:06.951Z,98950.20
2023-04-16T16:33:05.523Z,98951.20
2023-04-16T16:36:03.731Z,98949.40
2023-04-16T16:39:03.051Z,98945.20
2023-04-16T16:42:01.535Z,98950.60
2023-04-16T16:45:00.864Z,98951.00
2023-04-16T16:47:59.783Z,98953.80
2023-04-16T16:50:59.370Z,98953.80
2023-04-16T16:53:57.517Z,98956.80
2023-04-16T16:56:55.002Z,98956.00
2023-04-16T16:59:53.399Z,98957.00
2023-04-16T17:02:52.652Z,98960.60
2023-04-16T17:05:52.205Z,98960.40
2023-04-16T17:08:51.206Z,98959.40
2023-04-16T17:11:48.704Z,98962.60
2023-04-16T17:14:47.498Z,98961.20
2023-04-16T17:17:45.948Z,98959.20
2023-04-16T17:20:44.130Z,98963.20
2023-04-16T17:23:44.588Z,98958.00
2023-04-16T17:26:45.272Z,98961.20
2023-04-16T17:29:43.973Z,98963.20
2023-04-16T17:32:41.602Z,98962.60
2023-04-16T17:35:39.919Z,98966.80
2023-04-16T17:38:37.937Z,98964.00
2023-04-16T17:41:36.352Z,98968.60
2023-04-16T17:44:34.429Z,98968.20
2023-04-16T17:47:35.144Z,98967.60
2023-04-16T17:50:33.940Z,98968.60
2023-04-16T17:53:32.555Z,98969.00
2023-04-16T17:56:30.967Z,98973.20
2023-04-16T17:59:29.764Z,98978.20
2023-04-16T18:02:28.365Z,98974.60
2023-04-16T18:05:26.703Z,98986.60
2023-04-16T18:08:25.323Z,98982.40
2023-04-16T18:11:24.752Z,98987.60
2023-04-16T18:14:24.176Z,98987.60
2023-04-16T18:17:24.355Z,98988.60
2023-04-16T18:20:24.247Z,98991.80
2023-04-16T18:23:23.465Z,98997.60
2023-04-16T18:26:29.503Z,98996.00
2023-04-16T18:29:28.807Z,98997.00
2023-04-16T18:32:30.886Z,99000.20
2023-04-16T18:35:31.509Z,98998.40
2023-04-16T18:38:30.737Z,99000.20
2023-04-16T18:41:28.374Z,99003.20
2023-04-16T18:44:36.992Z,99005.40
2023-04-16T18:47:37.623Z,99014.60
2023-04-16T18:50:36.631Z,99011.40
2023-04-16T18:53:37.780Z,99013.80
2023-04-16T18:56:36.584Z,99016.00
2023-04-16T18:59:35.257Z,99016.20
2023-04-16T19:02:36.378Z,99017.20
2023-04-16T19:05:36.018Z,99021.60
2023-04-16T19:08:34.184Z,99024.20
2023-04-16T19:11:33.869Z,99028.40
2023-04-16T19:14:33.014Z,99027.40
2023-04-16T19:17:34.614Z,99025.00
2023-04-16T19:20:34.097Z,99027.20
2023-04-16T19:23:34.915Z,99022.20
2023-04-16T19:26:33.295Z,99024.80
2023-04-16T19:29:32.703Z,99026.20
2023-04-16T19:32:32.855Z,99021.80
2023-04-16T19:35:30.976Z,99022.00
2023-04-16T19:38:28.784Z,99021.40
2023-04-16T19:41:30.809Z,99021.60
2023-04-16T19:44:29.951Z,99024.60
2023-04-16T19:47:28.418Z,99026.80
2023-04-16T19:50:26.441Z,99026.80
2023-04-16T19:53:25.402Z,99027.40
2023-04-16T19:56:24.261Z,99026.00
2023-04-16T19:59:22.276Z,99020.20
2023-04-16T20:02:24.812Z,99022.60
2023-04-16T20:05:22.812Z,99018.20
2023-04-16T20:08:22.248Z,99017.40
2023-04-16T20:11:19.901Z,99022.40
2023-04-16T20:14:18.852Z,99018.00
2023-04-16T20:17:19.052Z,99021.00
2023-04-16T20:20:19.444Z,99017.40
2023-04-16T20:23:18.413Z,99018.60
2023-04-16T20:26:17.096Z,99021.40
2023-04-16T20:29:15.001Z,99015.40
2023-04-16T20:32:13.349Z,99021.60
2023-04-16T20:35:11.856Z,99016.40
2023-04-16T20:38:09.634Z,99015.20
2023-04-16T20:41:20.329Z,99009.40
2023-04-16T20:44:19.237Z,99013.40
2023-04-16T20:47:17.251Z,99012.40
2023-04-16T20:50:15.643Z,99011.40
2023-04-16T20:53:13.093Z,99010.80
2023-04-16T20:56:15.062Z,99007.80
2023-04-16T20:59:13.514Z,99008.00
2023-04-16T21:02:11.002Z,99006.40
2023-04-16T21:05:10.791Z,99011.60
2023-04-16T21:08:08.268Z,99010.40
2023-04-16T21:11:06.104Z,99011.20
2023-04-16T21:14:03.850Z,99011.40
2023-04-16T21:17:03.288Z,99012.80
2023-04-16T21:20:00.953Z,99011.80
2023-04-16T21:22:58.716Z,99011.60
2023-04-16T21:25:56.422Z,99012.20
2023-04-16T21:28:55.153Z,99006.60
2023-04-16T21:31:53.318Z,99006.60
2023-04-16T21:34:52.013Z,99001.80
2023-04-16T21:37:49.715Z,99003.20
2023-04-16T21:40:50.625Z,99004.40
2023-04-16T21:43:48.350Z,99003.40
2023-04-16T21:46:46.107Z,98999.40
2023-04-16T21:49:43.608Z,99002.80
2023-04-16T21:52:46.984Z,99000.80
2023-04-16T21:55:44.441Z,99000.00
2023-04-16T21:58:42.179Z,99007.20
2023-04-16T22:01:39.958Z,99005.00
2023-04-16T22:04:40.325Z,99002.20
2023-04-16T22:07:38.144Z,99002.40
2023-04-16T22:10:35.848Z,99001.40
2023-04-16T22:13:33.587Z,99002.80
2023-04-16T22:16:31.185Z,99003.60
2023-04-16T22:19:28.907Z,98994.60
2023-04-16T22:22:26.360Z,98990.60
2023-04-16T22:25:24.150Z,98990.00
2023-04-16T22:28:21.802Z,98986.20
2023-04-16T22:31:19.213Z,98983.00
2023-04-16T22:34:16.782Z,98980.80
2023-04-16T22:37:14.158Z,98978.20
2023-04-16T22:40:12.073Z,98975.40
2023-04-16T22:43:09.479Z,98971.00
2023-04-16T22:46:07.242Z,98972.60
2023-04-16T22:49:04.714Z,98975.80
2023-04-16T22:52:03.011Z,98970.20
2023-04-16T22:55:00.730Z,98971.00
2023-04-16T22:57:58.125Z,98966.00
2023-04-16T23:00:57.049Z,98967.40
2023-04-16T23:03:54.563Z,98965.20
2023-04-16T23:06:52.333Z,98967.40
2023-04-16T23:09:49.832Z,98963.80
2023-04-16T23:12:47.405Z,98960.40
2023-04-16T23:15:46.357Z,98954.20
2023-04-16T23:18:43.781Z,98952.60
2023-04-16T23:21:41.437Z,98952.60
2023-04-16T23:24:38.876Z,98951.20
2023-04-16T23:27:36.430Z,98946.00
2023-04-16T23:30:33.937Z,98947.40
2023-04-16T23:33:31.589Z,98940.80
2023-04-16T23:36:29.215Z,98939.40
2023-04-16T23:39:27.293Z,98942.40
2023-04-16T23:42:25.082Z,98943.80
2023-04-16T23:45:22.530Z,98945.00
2023-04-16T23:48:20.377Z,98948.80
2023-04-16T23:51:17.819Z,98949.40
2023-04-16T23:54:15.387Z,98945.60
2023-04-16T23:57:13.090Z,98938.00
